Time;durP1;ratioP1;P1;durP2;ratioP2;P2;SDS_P1;SDS_P2;PMS_P1;PMS_P2;Temp;Humidity;BMP_temperature;BMP_pressure;BME280_temperature;BME280_humidity;BME280_pressure;Samples;Min_cycle;Max_cycle;Signal;HPM_P1;HPM_P2
2022/04/16 00:01:23;;;;;;;7.75;4.22;;;;;;;;;;5100988;28;20466;-70
2022/04/16 00:03:49;;;;;;;8.10;4.00;;;;;;;;;;5100823;28;20051;-71
2022/04/16 00:06:15;;;;;;;8.15;3.90;;;;;;;;;;5116394;28;20122;-70
2022/04/16 00:08:41;;;;;;;9.82;4.03;;;;;;;;;;5098731;28;20115;-69
2022/04/16 00:11:08;;;;;;;8.63;3.92;;;;;;;;;;5081017;28;20336;-70
2022/04/16 00:13:34;;;;;;;7.22;3.58;;;;;;;;;;5100621;28;20078;-70
2022/04/16 00:16:00;;;;;;;8.80;3.67;;;;;;;;;;5100695;28;20035;-70
2022/04/16 00:18:26;;;;;;;7.22;3.67;;;;;;;;;;5100808;28;20035;-70
2022/04/16 00:20:52;;;;;;;7.95;3.83;;;;;;;;;;5100466;28;20066;-71
2022/04/16 00:23:22;;;;;;;7.55;3.60;;;;;;;;;;5083555;28;20729;-71
2022/04/16 00:25:48;;;;;;;7.15;3.47;;;;;;;;;;5083276;28;20043;-71
2022/04/16 00:28:15;;;;;;;7.72;3.58;;;;;;;;;;5082742;28;20381;-71
2022/04/16 00:30:41;;;;;;;6.68;3.60;;;;;;;;;;5100753;28;20286;-71
2022/04/16 00:33:07;;;;;;;5.60;3.17;;;;;;;;;;5100796;28;20448;-70
2022/04/16 00:35:34;;;;;;;6.72;3.30;;;;;;;;;;5100802;28;20159;-70
2022/04/16 00:38:00;;;;;;;5.70;2.90;;;;;;;;;;5118923;28;20471;-70
2022/04/16 00:40:26;;;;;;;6.65;3.60;;;;;;;;;;5119447;27;20141;-70
2022/04/16 00:42:53;;;;;;;7.18;3.65;;;;;;;;;;5096657;28;20099;-70
2022/04/16 00:45:19;;;;;;;7.70;3.83;;;;;;;;;;5083976;28;20390;-70
2022/04/16 00:47:45;;;;;;;6.72;3.50;;;;;;;;;;5084165;28;20039;-70
2022/04/16 00:50:12;;;;;;;6.47;3.20;;;;;;;;;;5102033;28;20646;-70
2022/04/16 00:52:38;;;;;;;6.82;3.28;;;;;;;;;;5083150;28;20035;-71
2022/04/16 00:55:06;;;;;;;6.63;3.22;;;;;;;;;;5102303;28;20122;-70
2022/04/16 00:57:32;;;;;;;5.93;3.35;;;;;;;;;;5083458;28;20066;-70
2022/04/16 01:00:00;;;;;;;6.15;3.17;;;;;;;;;;5083591;28;20061;-70
2022/04/16 01:02:26;;;;;;;8.07;3.40;;;;;;;;;;5083625;28;20043;-70
2022/04/16 01:04:52;;;;;;;6.22;3.42;;;;;;;;;;5083158;28;20065;-71
2022/04/16 01:07:25;;;;;;;6.30;3.45;;;;;;;;;;5083482;28;20252;-70
2022/04/16 01:09:51;;;;;;;6.50;3.08;;;;;;;;;;5083212;28;20343;-69
2022/04/16 01:12:17;;;;;;;5.50;2.97;;;;;;;;;;5083756;28;20418;-69
2022/04/16 01:14:45;;;;;;;6.32;3.28;;;;;;;;;;5083412;28;20464;-69
2022/04/16 01:17:11;;;;;;;7.28;3.58;;;;;;;;;;5080436;27;20252;-69
2022/04/16 01:19:38;;;;;;;6.18;3.35;;;;;;;;;;5083942;27;20102;-68
2022/04/16 01:22:07;;;;;;;6.85;3.50;;;;;;;;;;5098720;28;20035;-69
2022/04/16 01:24:34;;;;;;;6.40;3.10;;;;;;;;;;5082465;28;20272;-69
2022/04/16 01:27:00;;;;;;;7.30;3.33;;;;;;;;;;5082830;28;20220;-69
2022/04/16 01:29:26;;;;;;;6.07;3.40;;;;;;;;;;5082102;28;20047;-69
2022/04/16 01:31:53;;;;;;;6.10;3.53;;;;;;;;;;5083432;28;20040;-69
2022/04/16 01:34:19;;;;;;;6.05;3.28;;;;;;;;;;5082873;28;20401;-71
2022/04/16 01:36:46;;;;;;;6.82;3.70;;;;;;;;;;5082300;28;20047;-69
2022/04/16 01:39:12;;;;;;;6.53;3.05;;;;;;;;;;5082858;28;20507;-70
2022/04/16 01:41:40;;;;;;;7.03;3.55;;;;;;;;;;5082582;28;20043;-70
2022/04/16 01:44:06;;;;;;;6.68;3.67;;;;;;;;;;5101233;28;20036;-69
2022/04/16 01:46:32;;;;;;;6.50;3.40;;;;;;;;;;5082801;28;20380;-69
2022/04/16 01:48:58;;;;;;;7.53;4.05;;;;;;;;;;5082297;28;20036;-68
2022/04/16 01:51:25;;;;;;;6.68;4.07;;;;;;;;;;5082473;28;20054;-70
2022/04/16 01:53:51;;;;;;;6.90;4.13;;;;;;;;;;5081324;28;20043;-69
2022/04/16 01:56:17;;;;;;;6.70;3.78;;;;;;;;;;5082280;28;20058;-69
2022/04/16 01:58:44;;;;;;;7.60;3.95;;;;;;;;;;5072565;27;20204;-70
2022/04/16 02:01:10;;;;;;;9.00;4.15;;;;;;;;;;5073773;28;20036;-69
2022/04/16 02:03:36;;;;;;;8.13;3.78;;;;;;;;;;5082621;28;20536;-69
2022/04/16 02:06:03;;;;;;;7.70;3.80;;;;;;;;;;5082029;28;20438;-69
2022/04/16 02:08:29;;;;;;;6.68;3.90;;;;;;;;;;5083006;28;20332;-69
2022/04/16 02:10:55;;;;;;;7.90;4.43;;;;;;;;;;5082033;28;20045;-69
2022/04/16 02:13:21;;;;;;;8.32;4.55;;;;;;;;;;5100531;28;20073;-69
2022/04/16 02:15:47;;;;;;;8.18;4.88;;;;;;;;;;5081954;28;20282;-70
2022/04/16 02:18:13;;;;;;;6.45;4.00;;;;;;;;;;5082002;28;20429;-69
2022/04/16 02:20:41;;;;;;;8.43;3.97;;;;;;;;;;5081859;28;20039;-70
2022/04/16 02:23:09;;;;;;;8.80;4.40;;;;;;;;;;5085810;28;20256;-69
2022/04/16 02:25:35;;;;;;;8.45;4.40;;;;;;;;;;5081825;28;20632;-69
2022/04/16 02:28:01;;;;;;;7.80;3.95;;;;;;;;;;5099955;28;20048;-69
2022/04/16 02:30:30;;;;;;;8.45;4.35;;;;;;;;;;5081795;28;20042;-69
2022/04/16 02:32:56;;;;;;;7.95;4.45;;;;;;;;;;5064601;28;20039;-69
2022/04/16 02:35:23;;;;;;;6.30;3.35;;;;;;;;;;5081193;28;20118;-71
2022/04/16 02:37:49;;;;;;;7.38;4.05;;;;;;;;;;5081691;28;20050;-69
2022/04/16 02:40:15;;;;;;;7.68;4.50;;;;;;;;;;5064371;28;20147;-69
2022/04/16 02:42:42;;;;;;;8.43;4.15;;;;;;;;;;5081111;28;20055;-70
2022/04/16 02:47:55;;;;;;;8.48;4.18;;;;;;;;;;5099587;28;20035;-70
2022/04/16 02:50:24;;;;;;;8.32;4.05;;;;;;;;;;5081591;28;20042;-69
2022/04/16 02:52:50;;;;;;;7.00;4.03;;;;;;;;;;5080829;28;20040;-70
2022/04/16 02:55:17;;;;;;;6.93;3.67;;;;;;;;;;5065050;28;20046;-69
2022/04/16 02:57:43;;;;;;;7.05;3.90;;;;;;;;;;5080030;28;20043;-69
2022/04/16 03:00:10;;;;;;;7.25;4.28;;;;;;;;;;5081631;28;20032;-70
2022/04/16 03:02:37;;;;;;;7.70;4.55;;;;;;;;;;5081463;28;20209;-70
2022/04/16 03:05:03;;;;;;;7.50;4.45;;;;;;;;;;5080209;28;20046;-70
2022/04/16 03:07:29;;;;;;;7.35;4.28;;;;;;;;;;5080459;28;20051;-70
2022/04/16 03:09:55;;;;;;;7.88;4.00;;;;;;;;;;5092473;27;20150;-70
2022/04/16 03:12:21;;;;;;;7.68;4.65;;;;;;;;;;5120291;27;20042;-70
2022/04/16 03:17:32;;;;;;;8.50;4.50;;;;;;;;;;5099761;28;20078;-70
2022/04/16 03:19:58;;;;;;;8.55;4.70;;;;;;;;;;5081165;28;20067;-70
2022/04/16 03:22:24;;;;;;;7.93;4.65;;;;;;;;;;5081123;28;20031;-70
2022/04/16 03:24:51;;;;;;;7.68;4.47;;;;;;;;;;5081116;28;20241;-70
2022/04/16 03:27:17;;;;;;;9.95;4.88;;;;;;;;;;5080553;28;20047;-70
2022/04/16 03:29:43;;;;;;;9.85;5.57;;;;;;;;;;5081268;28;20449;-70
2022/04/16 03:32:09;;;;;;;8.50;5.57;;;;;;;;;;5099230;28;20074;-70
2022/04/16 03:34:37;;;;;;;10.35;6.93;;;;;;;;;;5080884;28;20081;-70
2022/04/16 03:37:03;;;;;;;9.88;5.97;;;;;;;;;;5079556;28;20043;-70
2022/04/16 03:39:29;;;;;;;8.23;5.28;;;;;;;;;;5080905;28;20059;-70
2022/04/16 03:41:55;;;;;;;8.85;5.68;;;;;;;;;;5080899;28;20477;-70
2022/04/16 03:44:21;;;;;;;10.15;6.55;;;;;;;;;;5063763;28;20138;-70
2022/04/16 03:46:47;;;;;;;9.40;6.03;;;;;;;;;;5080811;28;20079;-69
2022/04/16 03:49:13;;;;;;;11.32;7.20;;;;;;;;;;5080392;28;20317;-70
2022/04/16 03:51:39;;;;;;;14.40;9.45;;;;;;;;;;5080730;28;20563;-70
2022/04/16 04:02:19;;;;;;;;;;;;;;;;;;5081093;28;20043;-70
2022/04/16 04:04:46;;;;;;;10.02;6.68;;;;;;;;;;5080261;28;20010;-70
2022/04/16 04:07:12;;;;;;;12.02;7.95;;;;;;;;;;5080842;28;20184;-70
2022/04/16 04:09:39;;;;;;;12.30;7.28;;;;;;;;;;5080159;28;20171;-70
2022/04/16 04:12:14;;;;;;;14.70;10.45;;;;;;;;;;5080650;28;20392;-70
2022/04/16 04:14:41;;;;;;;12.27;8.30;;;;;;;;;;5079819;28;20457;-70
2022/04/16 04:17:07;;;;;;;12.35;7.57;;;;;;;;;;5083409;28;20052;-70
2022/04/16 04:19:37;;;;;;;11.93;8.38;;;;;;;;;;5084512;28;20180;-70
2022/04/16 04:22:04;;;;;;;11.57;7.80;;;;;;;;;;5084088;28;20067;-70
2022/04/16 04:24:30;;;;;;;10.80;6.57;;;;;;;;;;5084319;28;20123;-70
2022/04/16 04:26:56;;;;;;;11.38;7.47;;;;;;;;;;5084055;28;20087;-70
2022/04/16 04:29:22;;;;;;;12.75;8.13;;;;;;;;;;5084387;28;20112;-70
2022/04/16 04:31:49;;;;;;;12.63;8.35;;;;;;;;;;5084382;28;20039;-70
2022/04/16 04:34:15;;;;;;;12.63;8.82;;;;;;;;;;5084292;28;20048;-70
2022/04/16 04:36:40;;;;;;;11.90;7.95;;;;;;;;;;5067418;28;20105;-70
2022/04/16 04:39:06;;;;;;;12.60;8.60;;;;;;;;;;5097212;27;20055;-70
2022/04/16 04:41:33;;;;;;;11.75;8.23;;;;;;;;;;5087108;27;20062;-69
2022/04/16 04:43:59;;;;;;;11.73;8.13;;;;;;;;;;5103106;27;20043;-69
2022/04/16 04:46:24;;;;;;;10.55;7.72;;;;;;;;;;5103686;27;20372;-70
2022/04/16 04:48:50;;;;;;;13.75;8.98;;;;;;;;;;5104286;27;20065;-70
2022/04/16 04:51:17;;;;;;;12.35;8.23;;;;;;;;;;5103066;27;20459;-71
2022/04/16 04:53:43;;;;;;;12.13;7.90;;;;;;;;;;5103913;27;20537;-70
2022/04/16 04:56:09;;;;;;;13.60;8.60;;;;;;;;;;5103657;27;20045;-69
2022/04/16 04:58:35;;;;;;;12.00;8.25;;;;;;;;;;5103531;27;20092;-69
2022/04/16 05:01:01;;;;;;;11.75;8.05;;;;;;;;;;5104259;27;20084;-70
2022/04/16 05:03:27;;;;;;;13.52;8.68;;;;;;;;;;5103337;27;20114;-69
2022/04/16 05:05:53;;;;;;;12.98;8.65;;;;;;;;;;5103313;27;20566;-69
2022/04/16 05:08:18;;;;;;;11.30;8.02;;;;;;;;;;5103735;27;20213;-69
2022/04/16 05:10:44;;;;;;;12.57;8.55;;;;;;;;;;5103743;27;20051;-69
2022/04/16 05:13:10;;;;;;;12.38;8.60;;;;;;;;;;5103687;27;20653;-70
2022/04/16 05:15:36;;;;;;;13.38;8.55;;;;;;;;;;5103316;27;20212;-69
2022/04/16 05:18:02;;;;;;;12.85;8.75;;;;;;;;;;5103632;27;20039;-69
2022/04/16 05:20:28;;;;;;;11.90;7.97;;;;;;;;;;5103359;27;20092;-69
2022/04/16 05:22:54;;;;;;;12.55;9.27;;;;;;;;;;5102867;27;20127;-70
2022/04/16 05:25:20;;;;;;;11.90;8.10;;;;;;;;;;5103399;27;20043;-70
2022/04/16 05:27:46;;;;;;;12.25;8.82;;;;;;;;;;5101870;27;20428;-70
2022/04/16 05:30:13;;;;;;;10.98;7.80;;;;;;;;;;5102906;27;20046;-69
2022/04/16 05:32:40;;;;;;;13.50;8.82;;;;;;;;;;5121796;27;20118;-69
2022/04/16 05:35:08;;;;;;;11.38;8.18;;;;;;;;;;5121434;27;20147;-69
2022/04/16 05:37:35;;;;;;;11.73;8.18;;;;;;;;;;5082181;28;20637;-69
2022/04/16 05:40:02;;;;;;;11.82;8.27;;;;;;;;;;5101254;28;20465;-69
2022/04/16 05:42:28;;;;;;;10.35;7.43;;;;;;;;;;5082443;28;20070;-69
2022/04/16 05:44:58;;;;;;;13.02;8.52;;;;;;;;;;5082370;28;20072;-70
2022/04/16 05:47:24;;;;;;;12.85;7.90;;;;;;;;;;5081635;28;20071;-71
2022/04/16 05:49:50;;;;;;;10.93;7.88;;;;;;;;;;5082259;28;20119;-70
2022/04/16 05:52:18;;;;;;;11.95;7.88;;;;;;;;;;5082201;28;20123;-70
2022/04/16 05:54:44;;;;;;;12.73;7.50;;;;;;;;;;5082080;28;20031;-71
2022/04/16 05:57:10;;;;;;;11.25;7.72;;;;;;;;;;5082176;28;20592;-70
2022/04/16 05:59:37;;;;;;;10.25;7.55;;;;;;;;;;5081552;28;20040;-69
2022/04/16 06:02:03;;;;;;;11.38;7.38;;;;;;;;;;5082056;28;20051;-70
2022/04/16 06:04:29;;;;;;;9.95;6.95;;;;;;;;;;5081098;28;20067;-69
2022/04/16 06:06:55;;;;;;;11.82;8.02;;;;;;;;;;5100825;28;20138;-69
2022/04/16 06:09:21;;;;;;;12.25;7.78;;;;;;;;;;5081688;28;20505;-70
2022/04/16 06:11:48;;;;;;;11.30;6.57;;;;;;;;;;5081703;28;20124;-70
2022/04/16 06:14:15;;;;;;;10.95;7.30;;;;;;;;;;5081639;28;20051;-70
2022/04/16 06:16:41;;;;;;;10.52;7.35;;;;;;;;;;5081291;28;20070;-69
2022/04/16 06:19:07;;;;;;;12.00;7.28;;;;;;;;;;5081754;28;20574;-70
2022/04/16 06:21:33;;;;;;;11.20;7.30;;;;;;;;;;5100223;28;20051;-69
2022/04/16 06:23:59;;;;;;;12.02;7.07;;;;;;;;;;5065041;28;20648;-70
2022/04/16 06:26:28;;;;;;;11.18;7.28;;;;;;;;;;5100650;28;20051;-69
2022/04/16 06:28:54;;;;;;;10.50;6.32;;;;;;;;;;5081397;28;20044;-68
2022/04/16 06:31:20;;;;;;;11.25;7.13;;;;;;;;;;5081644;27;20111;-69
2022/04/16 06:33:46;;;;;;;10.25;6.85;;;;;;;;;;5078252;27;20184;-70
2022/04/16 06:36:12;;;;;;;11.20;7.22;;;;;;;;;;5101626;27;20112;-70
2022/04/16 06:38:38;;;;;;;10.98;7.25;;;;;;;;;;5086947;27;20050;-69
2022/04/16 06:41:04;;;;;;;10.30;6.82;;;;;;;;;;5085140;27;20070;-70
2022/04/16 06:43:30;;;;;;;9.85;6.43;;;;;;;;;;5104591;27;20065;-69
2022/04/16 06:45:56;;;;;;;10.88;6.43;;;;;;;;;;5076359;27;20088;-69
2022/04/16 06:48:22;;;;;;;10.70;6.53;;;;;;;;;;5076901;27;20653;-69
2022/04/16 06:50:48;;;;;;;10.85;6.25;;;;;;;;;;5102523;27;20042;-70
2022/04/16 06:53:15;;;;;;;11.57;6.53;;;;;;;;;;5109988;27;20488;-69
2022/04/16 06:55:43;;;;;;;13.95;7.80;;;;;;;;;;5101652;27;20086;-71
2022/04/16 06:58:09;;;;;;;14.60;7.55;;;;;;;;;;5103640;27;20126;-70
2022/04/16 07:00:35;;;;;;;13.38;7.43;;;;;;;;;;5102123;27;20273;-70
2022/04/16 07:03:01;;;;;;;12.52;7.30;;;;;;;;;;5101402;27;20045;-70
2022/04/16 07:05:27;;;;;;;10.55;6.78;;;;;;;;;;5060267;27;20043;-69
2022/04/16 07:07:53;;;;;;;13.95;6.95;;;;;;;;;;5084412;27;20070;-69
2022/04/16 07:10:19;;;;;;;13.85;7.20;;;;;;;;;;5100148;27;20273;-69
2022/04/16 07:12:45;;;;;;;11.57;7.35;;;;;;;;;;5100690;27;20051;-70
2022/04/16 07:15:11;;;;;;;13.65;6.63;;;;;;;;;;5099731;27;20059;-70
2022/04/16 07:17:37;;;;;;;11.32;7.30;;;;;;;;;;5100570;27;20126;-70
2022/04/16 07:20:03;;;;;;;10.75;6.10;;;;;;;;;;5099598;27;20155;-70
2022/04/16 07:22:29;;;;;;;11.68;6.38;;;;;;;;;;5100645;27;20036;-70
2022/04/16 07:24:55;;;;;;;10.05;6.22;;;;;;;;;;5100639;27;20198;-70
2022/04/16 07:27:21;;;;;;;10.07;6.10;;;;;;;;;;5100021;27;20264;-69
2022/04/16 07:29:47;;;;;;;11.55;6.43;;;;;;;;;;5083194;28;20052;-71
2022/04/16 07:32:13;;;;;;;9.93;5.65;;;;;;;;;;5079862;28;20523;-70
2022/04/16 07:34:39;;;;;;;11.02;6.25;;;;;;;;;;5079446;28;20047;-70
2022/04/16 07:37:05;;;;;;;9.63;5.55;;;;;;;;;;5063508;28;20122;-70
2022/04/16 07:39:31;;;;;;;10.15;5.72;;;;;;;;;;5062991;28;20072;-70
2022/04/16 07:41:57;;;;;;;11.02;6.07;;;;;;;;;;5079859;28;20040;-70
2022/04/16 07:44:23;;;;;;;9.95;5.40;;;;;;;;;;5079554;28;20067;-70
2022/04/16 07:46:49;;;;;;;9.90;5.10;;;;;;;;;;5063138;28;20078;-70
2022/04/16 07:49:17;;;;;;;8.77;4.78;;;;;;;;;;5082241;28;20138;-69
2022/04/16 07:51:45;;;;;;;9.55;5.18;;;;;;;;;;5099834;28;20062;-70
2022/04/16 07:54:11;;;;;;;9.13;5.10;;;;;;;;;;5100187;28;20043;-70
2022/04/16 07:56:37;;;;;;;10.02;5.00;;;;;;;;;;5082688;28;20045;-70
2022/04/16 07:59:03;;;;;;;6.95;4.32;;;;;;;;;;5083430;28;20043;-70
2022/04/16 08:01:29;;;;;;;8.77;4.82;;;;;;;;;;5100287;28;20047;-69
2022/04/16 08:03:55;;;;;;;7.10;4.13;;;;;;;;;;5099725;28;20058;-70
2022/04/16 08:06:21;;;;;;;7.22;3.85;;;;;;;;;;5099900;28;20196;-70
2022/04/16 08:08:47;;;;;;;9.18;4.25;;;;;;;;;;5100017;28;20043;-70
2022/04/16 08:11:13;;;;;;;9.05;4.07;;;;;;;;;;5118730;28;20370;-69
2022/04/16 08:13:39;;;;;;;7.20;3.90;;;;;;;;;;5098912;28;20051;-70
2022/04/16 08:16:06;;;;;;;7.60;3.50;;;;;;;;;;5100268;28;20051;-70
2022/04/16 08:18:31;;;;;;;7.97;3.65;;;;;;;;;;5099531;28;20152;-70
2022/04/16 08:20:58;;;;;;;7.47;3.65;;;;;;;;;;5099051;28;20068;-70
2022/04/16 08:23:24;;;;;;;7.60;3.40;;;;;;;;;;5099717;28;20061;-70
2022/04/16 08:25:50;;;;;;;7.90;3.80;;;;;;;;;;5099909;28;20051;-70
2022/04/16 08:28:16;;;;;;;6.57;3.60;;;;;;;;;;5099714;28;20055;-70
2022/04/16 08:30:42;;;;;;;7.15;3.45;;;;;;;;;;5083365;28;20043;-70
2022/04/16 08:33:13;;;;;;;7.07;3.35;;;;;;;;;;5099896;28;20118;-70
2022/04/16 08:35:42;;;;;;;8.35;3.53;;;;;;;;;;5100354;28;20103;-70
2022/04/16 08:38:09;;;;;;;8.43;3.15;;;;;;;;;;5118148;28;20130;-70
2022/04/16 08:40:35;;;;;;;6.97;3.58;;;;;;;;;;5099966;28;20689;-70
2022/04/16 08:43:01;;;;;;;6.05;2.92;;;;;;;;;;5099634;28;20054;-70
2022/04/16 08:45:30;;;;;;;7.80;3.17;;;;;;;;;;5100263;28;20050;-70
2022/04/16 08:47:57;;;;;;;6.25;2.97;;;;;;;;;;5099084;28;20282;-70
2022/04/16 08:50:24;;;;;;;6.50;3.05;;;;;;;;;;5099957;28;20038;-70
2022/04/16 08:52:50;;;;;;;5.45;2.67;;;;;;;;;;5099346;28;20430;-71
2022/04/16 08:55:16;;;;;;;5.65;2.53;;;;;;;;;;5099622;28;20054;-70
2022/04/16 08:57:42;;;;;;;6.35;2.72;;;;;;;;;;5099662;28;20062;-70
2022/04/16 09:00:09;;;;;;;5.35;2.70;;;;;;;;;;5082537;28;20217;-70
2022/04/16 09:02:35;;;;;;;5.45;2.40;;;;;;;;;;5118021;27;20039;-70
2022/04/16 09:05:11;;;;;;;6.55;2.50;;;;;;;;;;5085863;27;20182;-69
2022/04/16 09:07:47;;;;;;;5.50;2.67;;;;;;;;;;5102426;27;20047;-70
2022/04/16 09:10:13;;;;;;;6.03;2.00;;;;;;;;;;5102783;27;20054;-69
2022/04/16 09:12:40;;;;;;;5.65;2.55;;;;;;;;;;5102815;27;20046;-69
2022/04/16 09:15:07;;;;;;;6.45;2.72;;;;;;;;;;5102325;27;20035;-69
2022/04/16 09:17:33;;;;;;;5.00;2.15;;;;;;;;;;5099469;27;20059;-70
2022/04/16 09:19:59;;;;;;;5.00;2.20;;;;;;;;;;5101906;27;20050;-69
2022/04/16 09:22:35;;;;;;;5.07;2.35;;;;;;;;;;5102431;27;20058;-69
2022/04/16 09:25:02;;;;;;;4.97;2.28;;;;;;;;;;5086235;27;20035;-70
2022/04/16 09:27:28;;;;;;;5.25;2.28;;;;;;;;;;5101780;27;20380;-69
2022/04/16 09:29:54;;;;;;;4.97;1.83;;;;;;;;;;5073412;27;20526;-69
2022/04/16 09:32:24;;;;;;;4.88;2.40;;;;;;;;;;5102374;27;20404;-69
2022/04/16 09:34:50;;;;;;;5.28;1.98;;;;;;;;;;5102942;27;20248;-69
2022/04/16 09:37:16;;;;;;;5.53;2.20;;;;;;;;;;5102964;27;20083;-70
2022/04/16 09:39:42;;;;;;;5.07;2.20;;;;;;;;;;5102490;27;20135;-69
2022/04/16 09:42:08;;;;;;;4.60;1.80;;;;;;;;;;5102548;27;20052;-69
2022/04/16 09:44:34;;;;;;;5.00;2.40;;;;;;;;;;5102151;27;20227;-70
2022/04/16 09:47:01;;;;;;;6.13;2.33;;;;;;;;;;5100864;27;20044;-69
2022/04/16 09:49:28;;;;;;;4.70;2.05;;;;;;;;;;5082170;28;20272;-70
2022/04/16 09:51:54;;;;;;;4.13;1.77;;;;;;;;;;5081608;28;20126;-69
2022/04/16 09:54:21;;;;;;;4.55;2.00;;;;;;;;;;5065484;28;20142;-69
2022/04/16 09:56:47;;;;;;;5.03;2.00;;;;;;;;;;5081265;28;20055;-71
2022/04/16 09:59:17;;;;;;;4.88;1.92;;;;;;;;;;5081697;28;20052;-70
2022/04/16 10:01:47;;;;;;;5.07;1.83;;;;;;;;;;5091781;27;20056;-70
2022/04/16 10:04:17;;;;;;;4.90;2.00;;;;;;;;;;5102064;27;20237;-70
2022/04/16 10:06:44;;;;;;;5.78;1.60;;;;;;;;;;5102228;27;20561;-70
2022/04/16 10:09:22;;;;;;;4.55;1.98;;;;;;;;;;5101706;27;20035;-70
2022/04/16 10:14:54;;;;;;;4.22;1.60;;;;;;;;;;5101044;27;20054;-70
2022/04/16 10:17:35;;;;;;;4.00;1.63;;;;;;;;;;5101279;27;20130;-70
2022/04/16 10:20:11;;;;;;;3.80;1.30;;;;;;;;;;5101886;27;20078;-70
2022/04/16 10:22:38;;;;;;;4.13;1.67;;;;;;;;;;5091289;28;20404;-70
2022/04/16 10:25:05;;;;;;;4.28;1.63;;;;;;;;;;5081961;28;20322;-70
2022/04/16 10:27:32;;;;;;;4.32;1.60;;;;;;;;;;5079994;28;20052;-70
2022/04/16 10:30:01;;;;;;;3.25;1.35;;;;;;;;;;5083369;27;20051;-70
2022/04/16 10:32:40;;;;;;;3.38;1.20;;;;;;;;;;5101014;27;20185;-70
2022/04/16 10:35:07;;;;;;;3.55;1.25;;;;;;;;;;5119894;27;20683;-70
2022/04/16 10:37:38;;;;;;;3.22;1.35;;;;;;;;;;5081484;27;20158;-69
2022/04/16 10:40:25;;;;;;;3.05;1.25;;;;;;;;;;5081024;28;20110;-70
2022/04/16 10:42:53;;;;;;;4.07;1.38;;;;;;;;;;5063977;28;20055;-70
2022/04/16 10:45:19;;;;;;;3.38;1.17;;;;;;;;;;5110569;27;20659;-70
2022/04/16 10:47:46;;;;;;;7.28;1.13;;;;;;;;;;5107124;27;20124;-70
2022/04/16 10:50:15;;;;;;;3.72;1.25;;;;;;;;;;5079631;28;20317;-70
2022/04/16 10:52:52;;;;;;;5.03;1.45;;;;;;;;;;5080916;28;20035;-69
2022/04/16 10:55:20;;;;;;;4.85;1.48;;;;;;;;;;5097631;27;20103;-69
2022/04/16 10:57:55;;;;;;;2.95;1.13;;;;;;;;;;5101521;27;20040;-70
2022/04/16 11:00:21;;;;;;;5.05;1.20;;;;;;;;;;5101908;27;20612;-70
2022/04/16 11:02:47;;;;;;;3.50;1.25;;;;;;;;;;5120312;27;20045;-70
2022/04/16 11:05:13;;;;;;;2.85;1.08;;;;;;;;;;5102200;27;20130;-69
2022/04/16 11:07:41;;;;;;;2.95;1.00;;;;;;;;;;5119780;27;20132;-69
2022/04/16 11:10:08;;;;;;;2.90;1.20;;;;;;;;;;5101799;27;20523;-69
2022/04/16 11:12:37;;;;;;;3.15;1.20;;;;;;;;;;5100352;27;20047;-70
2022/04/16 11:15:07;;;;;;;5.45;1.45;;;;;;;;;;5119721;27;20039;-70
2022/04/16 11:17:33;;;;;;;3.28;1.10;;;;;;;;;;5084396;27;20194;-70
2022/04/16 11:20:06;;;;;;;5.40;1.25;;;;;;;;;;5100954;27;20229;-69
2022/04/16 11:22:33;;;;;;;4.40;1.17;;;;;;;;;;5064496;27;20400;-70
2022/04/16 11:24:59;;;;;;;4.45;1.27;;;;;;;;;;5054261;27;20043;-70
2022/04/16 11:35:58;;;;;;;4.13;1.27;;;;;;;;;;5103108;27;20185;-70
2022/04/16 11:38:34;;;;;;;3.85;1.20;;;;;;;;;;5102990;28;20066;-70
2022/04/16 11:41:01;;;;;;;3.20;1.15;;;;;;;;;;5103460;28;20091;-70
2022/04/16 11:43:30;;;;;;;3.17;1.30;;;;;;;;;;5100582;28;20039;-70
2022/04/16 11:45:56;;;;;;;3.50;1.23;;;;;;;;;;5100653;27;20258;-70
2022/04/16 11:48:23;;;;;;;3.70;1.42;;;;;;;;;;5100634;28;20160;-70
2022/04/16 11:50:49;;;;;;;4.15;1.10;;;;;;;;;;5100723;28;20050;-70
2022/04/16 11:53:15;;;;;;;2.95;1.00;;;;;;;;;;5100904;28;20078;-70
2022/04/16 11:55:45;;;;;;;3.05;1.10;;;;;;;;;;5119711;27;20042;-70
2022/04/16 11:58:11;;;;;;;2.50;1.00;;;;;;;;;;5100673;28;20051;-70
2022/04/16 12:00:47;;;;;;;4.63;1.05;;;;;;;;;;5101696;28;20073;-71
2022/04/16 12:03:14;;;;;;;7.85;1.42;;;;;;;;;;5103182;28;20035;-72
2022/04/16 12:05:42;;;;;;;5.97;1.30;;;;;;;;;;5103263;28;20128;-72
2022/04/16 12:08:09;;;;;;;8.23;1.30;;;;;;;;;;5103356;28;20130;-72
2022/04/16 12:10:36;;;;;;;3.03;1.08;;;;;;;;;;5101068;28;20111;-71
2022/04/16 12:13:09;;;;;;;4.50;1.02;;;;;;;;;;5099419;28;20083;-72
2022/04/16 12:15:39;;;;;;;5.28;1.13;;;;;;;;;;5080591;28;20036;-72
2022/04/16 12:18:09;;;;;;;4.30;1.17;;;;;;;;;;5080314;28;20040;-72
2022/04/16 12:20:40;;;;;;;2.92;1.00;;;;;;;;;;5079811;28;20225;-71
2022/04/16 12:23:10;;;;;;;6.55;1.15;;;;;;;;;;5080113;28;20067;-71
2022/04/16 12:25:37;;;;;;;5.70;0.93;;;;;;;;;;5080009;28;20062;-71
2022/04/16 12:28:03;;;;;;;3.65;1.20;;;;;;;;;;5079659;28;20056;-70
2022/04/16 12:30:31;;;;;;;3.10;0.93;;;;;;;;;;5063101;28;20055;-71
2022/04/16 12:32:58;;;;;;;5.70;1.10;;;;;;;;;;5079842;28;20518;-71
2022/04/16 12:35:24;;;;;;;6.43;1.20;;;;;;;;;;5079670;28;20047;-71
2022/04/16 12:37:51;;;;;;;5.78;1.10;;;;;;;;;;5082573;28;20553;-71
2022/04/16 12:40:18;;;;;;;7.05;1.00;;;;;;;;;;5083823;28;20036;-71
2022/04/16 12:42:44;;;;;;;5.38;1.10;;;;;;;;;;5083189;28;20043;-72
2022/04/16 12:45:10;;;;;;;4.28;0.90;;;;;;;;;;5084040;28;20073;-71
2022/04/16 12:47:36;;;;;;;3.08;0.75;;;;;;;;;;5083530;28;20044;-71
2022/04/16 12:50:02;;;;;;;4.05;0.95;;;;;;;;;;5066779;28;20039;-70
2022/04/16 12:52:28;;;;;;;3.67;1.02;;;;;;;;;;5082972;28;20214;-71
2022/04/16 12:54:54;;;;;;;2.03;0.70;;;;;;;;;;5066393;28;20044;-71
2022/04/16 12:57:20;;;;;;;3.58;0.90;;;;;;;;;;5083509;28;20043;-70
2022/04/16 12:59:46;;;;;;;4.55;1.00;;;;;;;;;;5084065;28;20127;-74
2022/04/16 13:02:12;;;;;;;3.08;0.80;;;;;;;;;;5092267;27;20035;-71
2022/04/16 13:04:38;;;;;;;2.83;0.80;;;;;;;;;;5088465;27;20042;-70
2022/04/16 13:07:04;;;;;;;2.47;0.90;;;;;;;;;;5104481;27;20062;-71
2022/04/16 13:09:30;;;;;;;3.50;1.00;;;;;;;;;;5122093;27;20188;-72
2022/04/16 13:11:56;;;;;;;3.28;0.90;;;;;;;;;;5103822;27;20173;-72
2022/04/16 13:14:23;;;;;;;3.85;1.08;;;;;;;;;;5122216;27;20047;-71
2022/04/16 13:16:49;;;;;;;3.83;1.02;;;;;;;;;;5103442;27;20164;-71
2022/04/16 13:19:18;;;;;;;2.80;0.93;;;;;;;;;;5102893;27;20123;-71
2022/04/16 13:21:44;;;;;;;2.80;0.77;;;;;;;;;;5094360;27;20108;-72
2022/04/16 13:24:14;;;;;;;4.07;1.15;;;;;;;;;;5102598;27;20211;-71
2022/04/16 13:26:40;;;;;;;6.70;1.08;;;;;;;;;;5121934;27;20061;-71
2022/04/16 13:29:06;;;;;;;3.38;0.90;;;;;;;;;;5102489;27;20123;-72
2022/04/16 13:31:34;;;;;;;4.57;0.80;;;;;;;;;;5103213;27;20077;-72
2022/04/16 13:34:01;;;;;;;3.55;0.80;;;;;;;;;;5103059;27;20051;-72
2022/04/16 13:36:27;;;;;;;4.65;0.95;;;;;;;;;;5116933;27;20163;-71
2022/04/16 13:38:54;;;;;;;2.05;0.73;;;;;;;;;;5102003;27;20346;-71
2022/04/16 13:41:38;;;;;;;3.15;0.80;;;;;;;;;;5102561;27;20031;-70
2022/04/16 13:44:04;;;;;;;2.25;0.70;;;;;;;;;;5102907;27;20035;-71
2022/04/16 13:46:30;;;;;;;5.40;1.45;;;;;;;;;;5121458;27;20388;-71
2022/04/16 13:48:57;;;;;;;4.72;0.68;;;;;;;;;;5101947;27;20039;-71
2022/04/16 13:51:22;;;;;;;2.00;0.77;;;;;;;;;;5102586;27;20062;-70
2022/04/16 13:53:48;;;;;;;5.68;0.80;;;;;;;;;;5098829;27;21394;-71
2022/04/16 13:56:14;;;;;;;2.45;0.90;;;;;;;;;;5075684;27;21491;-71
2022/04/16 13:58:40;;;;;;;3.83;0.70;;;;;;;;;;5086343;27;20079;-71
2022/04/16 14:01:06;;;;;;;3.45;0.70;;;;;;;;;;5101497;27;20071;-69
2022/04/16 14:03:32;;;;;;;6.68;1.08;;;;;;;;;;5101172;27;20035;-70
2022/04/16 14:05:58;;;;;;;6.10;0.80;;;;;;;;;;5102075;27;21003;-70
2022/04/16 14:08:27;;;;;;;4.30;0.90;;;;;;;;;;5116014;27;20039;-69
2022/04/16 14:10:55;;;;;;;3.20;0.88;;;;;;;;;;5101164;27;20055;-69
2022/04/16 14:13:21;;;;;;;1.80;0.70;;;;;;;;;;5101475;27;20086;-70
2022/04/16 14:15:49;;;;;;;4.43;0.90;;;;;;;;;;5083633;27;20523;-69
2022/04/16 14:18:15;;;;;;;2.67;0.70;;;;;;;;;;5101223;27;20527;-70
2022/04/16 14:20:42;;;;;;;1.80;0.70;;;;;;;;;;5101271;27;20260;-70
2022/04/16 14:23:08;;;;;;;3.55;0.68;;;;;;;;;;5101131;27;20034;-70
2022/04/16 14:25:34;;;;;;;1.90;0.60;;;;;;;;;;5102344;27;20133;-70
2022/04/16 14:28:00;;;;;;;2.92;0.77;;;;;;;;;;5081928;28;20533;-69
2022/04/16 14:30:27;;;;;;;3.65;0.80;;;;;;;;;;5083591;28;20135;-70
2022/04/16 14:32:54;;;;;;;2.88;0.70;;;;;;;;;;5102792;28;20130;-70
2022/04/16 14:35:20;;;;;;;2.80;0.70;;;;;;;;;;5082339;28;20039;-70
2022/04/16 14:37:46;;;;;;;5.65;0.98;;;;;;;;;;5083154;28;20284;-70
2022/04/16 14:40:12;;;;;;;5.45;0.95;;;;;;;;;;5083260;28;20740;-70
2022/04/16 14:42:39;;;;;;;6.68;1.10;;;;;;;;;;5083235;28;20036;-70
2022/04/16 14:45:05;;;;;;;2.95;0.70;;;;;;;;;;5083548;28;20122;-70
2022/04/16 14:47:32;;;;;;;3.17;0.73;;;;;;;;;;5083681;28;20062;-70
2022/04/16 14:49:58;;;;;;;1.48;0.70;;;;;;;;;;5083743;28;20078;-70
2022/04/16 14:52:27;;;;;;;3.33;0.80;;;;;;;;;;5083880;28;20496;-70
2022/04/16 14:54:53;;;;;;;3.30;0.75;;;;;;;;;;5083145;28;20047;-71
2022/04/16 14:57:19;;;;;;;3.92;0.80;;;;;;;;;;5083612;28;20083;-70
2022/04/16 14:59:45;;;;;;;3.05;0.73;;;;;;;;;;5083487;28;20700;-72
2022/04/16 15:02:11;;;;;;;2.03;0.80;;;;;;;;;;5083819;28;20046;-71
2022/04/16 15:04:37;;;;;;;3.58;0.98;;;;;;;;;;5083204;28;20031;-71